sensor_id;sensor_type;location;lat;lon;timestamp;pressure;altitude;pressure_sealevel;temperature;humidity
19843;BME280;10082;51.038;6.992;2023-03-01T00:01:48;112171.53;;;-144.33;100.00
19843;BME280;10082;51.038;6.992;2023-03-01T00:04:15;112171.53;;;-144.33;100.00
19843;BME280;10082;51.038;6.992;2023-03-01T00:06:43;112171.53;;;-144.33;100.00
19843;BME280;10082;51.038;6.992;2023-03-01T00:09:11;112171.53;;;-144.33;100.00
19843;BME280;10082;51.038;6.992;2023-03-01T00:11:39;112171.53;;;-144.33;100.00
19843;BME280;10082;51.038;6.992;2023-03-01T00:14:07;112171.53;;;-144.33;100.00
19843;BME280;10082;51.038;6.992;2023-03-01T00:16:38;112171.53;;;-144.33;100.00
19843;BME280;10082;51.038;6.992;2023-03-01T00:19:06;112171.53;;;-144.33;100.00
19843;BME280;10082;51.038;6.992;2023-03-01T00:21:35;112171.53;;;-144.33;100.00
19843;BME280;10082;51.038;6.992;2023-03-01T00:24:02;112171.53;;;-144.33;100.00
19843;BME280;10082;51.038;6.992;2023-03-01T00:26:30;112171.53;;;-144.33;100.00
19843;BME280;10082;51.038;6.992;2023-03-01T00:28:58;112171.53;;;-144.33;100.00
19843;BME280;10082;51.038;6.992;2023-03-01T00:31:27;112171.53;;;-144.33;100.00
19843;BME280;10082;51.038;6.992;2023-03-01T00:33:59;112171.53;;;-144.33;100.00
19843;BME280;10082;51.038;6.992;2023-03-01T00:36:28;112171.53;;;-144.33;100.00
19843;BME280;10082;51.038;6.992;2023-03-01T00:38:56;112171.53;;;-144.33;100.00
19843;BME280;10082;51.038;6.992;2023-03-01T00:41:24;112171.53;;;-144.33;100.00
19843;BME280;10082;51.038;6.992;2023-03-01T00:43:52;112171.53;;;-144.33;100.00
19843;BME280;10082;51.038;6.992;2023-03-01T00:46:22;112171.53;;;-144.33;100.00
19843;BME280;10082;51.038;6.992;2023-03-01T00:48:50;112171.53;;;-144.33;100.00
19843;BME280;10082;51.038;6.992;2023-03-01T00:51:20;112171.53;;;-144.33;100.00
19843;BME280;10082;51.038;6.992;2023-03-01T00:53:50;112171.53;;;-144.33;100.00
19843;BME280;10082;51.038;6.992;2023-03-01T00:56:18;112171.53;;;-144.33;100.00
19843;BME280;10082;51.038;6.992;2023-03-01T00:58:45;112171.53;;;-144.33;100.00
19843;BME280;10082;51.038;6.992;2023-03-01T01:01:15;112171.53;;;-144.33;100.00
19843;BME280;10082;51.038;6.992;2023-03-01T01:03:46;112171.53;;;-144.33;100.00
19843;BME280;10082;51.038;6.992;2023-03-01T01:06:20;112171.53;;;-144.33;100.00
19843;BME280;10082;51.038;6.992;2023-03-01T01:08:48;112171.53;;;-144.33;100.00
19843;BME280;10082;51.038;6.992;2023-03-01T01:11:16;112171.53;;;-144.33;100.00
19843;BME280;10082;51.038;6.992;2023-03-01T01:13:45;112171.53;;;-144.33;100.00
19843;BME280;10082;51.038;6.992;2023-03-01T01:16:14;112171.53;;;-144.33;100.00
19843;BME280;10082;51.038;6.992;2023-03-01T01:18:42;112171.53;;;-144.33;100.00
19843;BME280;10082;51.038;6.992;2023-03-01T01:21:11;112171.53;;;-144.33;100.00
19843;BME280;10082;51.038;6.992;2023-03-01T01:23:40;112171.53;;;-144.33;100.00
19843;BME280;10082;51.038;6.992;2023-03-01T01:26:12;112171.53;;;-144.33;100.00
19843;BME280;10082;51.038;6.992;2023-03-01T01:28:44;112171.53;;;-144.33;100.00
19843;BME280;10082;51.038;6.992;2023-03-01T01:31:14;112171.53;;;-144.33;100.00
19843;BME280;10082;51.038;6.992;2023-03-01T01:33:42;112171.53;;;-144.33;100.00
19843;BME280;10082;51.038;6.992;2023-03-01T01:36:14;112171.53;;;-144.33;100.00
19843;BME280;10082;51.038;6.992;2023-03-01T01:38:43;112171.53;;;-144.33;100.00
19843;BME280;10082;51.038;6.992;2023-03-01T01:41:19;112171.53;;;-144.33;100.00
19843;BME280;10082;51.038;6.992;2023-03-01T01:44:15;112171.53;;;-144.33;100.00
19843;BME280;10082;51.038;6.992;2023-03-01T01:46:45;112171.53;;;-144.33;100.00
19843;BME280;10082;51.038;6.992;2023-03-01T01:49:19;112171.53;;;-144.33;100.00
19843;BME280;10082;51.038;6.992;2023-03-01T01:51:53;112171.53;;;-144.33;100.00
19843;BME280;10082;51.038;6.992;2023-03-01T01:54:26;112171.53;;;-144.33;100.00
19843;BME280;10082;51.038;6.992;2023-03-01T01:56:57;112171.53;;;-144.33;100.00
19843;BME280;10082;51.038;6.992;2023-03-01T01:59:28;112171.53;;;-144.33;100.00
19843;BME280;10082;51.038;6.992;2023-03-01T02:01:59;112171.53;;;-144.33;100.00
19843;BME280;10082;51.038;6.992;2023-03-01T02:04:32;112171.53;;;-144.33;100.00
19843;BME280;10082;51.038;6.992;2023-03-01T02:07:02;112171.53;;;-144.33;100.00
19843;BME280;10082;51.038;6.992;2023-03-01T02:09:34;112171.53;;;-144.33;100.00
19843;BME280;10082;51.038;6.992;2023-03-01T02:12:12;112171.53;;;-144.33;100.00
19843;BME280;10082;51.038;6.992;2023-03-01T02:14:41;112171.53;;;-144.33;100.00
19843;BME280;10082;51.038;6.992;2023-03-01T02:17:14;112171.53;;;-144.33;100.00
19843;BME280;10082;51.038;6.992;2023-03-01T02:19:50;112171.53;;;-144.33;100.00
19843;BME280;10082;51.038;6.992;2023-03-01T02:22:28;112171.53;;;-144.33;100.00
19843;BME280;10082;51.038;6.992;2023-03-01T02:27:54;112171.53;;;-144.33;100.00
19843;BME280;10082;51.038;6.992;2023-03-01T02:30:33;112171.53;;;-144.33;100.00
19843;BME280;10082;51.038;6.992;2023-03-01T02:33:04;112171.53;;;-144.33;100.00
19843;BME280;10082;51.038;6.992;2023-03-01T02:35:35;112171.53;;;-144.33;100.00
19843;BME280;10082;51.038;6.992;2023-03-01T02:38:07;112171.53;;;-144.33;100.00
19843;BME280;10082;51.038;6.992;2023-03-01T02:40:36;112171.53;;;-144.33;100.00
19843;BME280;10082;51.038;6.992;2023-03-01T02:43:09;112171.53;;;-144.33;100.00
19843;BME280;10082;51.038;6.992;2023-03-01T02:45:54;112171.53;;;-144.33;100.00
19843;BME280;10082;51.038;6.992;2023-03-01T02:48:27;112171.53;;;-144.33;100.00
19843;BME280;10082;51.038;6.992;2023-03-01T02:51:05;112171.53;;;-144.33;100.00
19843;BME280;10082;51.038;6.992;2023-03-01T02:53:41;112171.53;;;-144.33;100.00
19843;BME280;10082;51.038;6.992;2023-03-01T02:56:13;112171.53;;;-144.33;100.00
19843;BME280;10082;51.038;6.992;2023-03-01T02:58:41;112171.53;;;-144.33;100.00
19843;BME280;10082;51.038;6.992;2023-03-01T03:01:18;112171.53;;;-144.33;100.00
19843;BME280;10082;51.038;6.992;2023-03-01T03:03:46;112171.53;;;-144.33;100.00
19843;BME280;10082;51.038;6.992;2023-03-01T03:06:14;112171.53;;;-144.33;100.00
19843;BME280;10082;51.038;6.992;2023-03-01T03:08:41;112171.53;;;-144.33;100.00
19843;BME280;10082;51.038;6.992;2023-03-01T03:11:09;112171.53;;;-144.33;100.00
19843;BME280;10082;51.038;6.992;2023-03-01T03:13:36;112171.53;;;-144.33;100.00
19843;BME280;10082;51.038;6.992;2023-03-01T03:16:18;112171.53;;;-144.33;100.00
19843;BME280;10082;51.038;6.992;2023-03-01T03:18:46;112171.53;;;-144.33;100.00
19843;BME280;10082;51.038;6.992;2023-03-01T03:21:14;112171.53;;;-144.33;100.00
19843;BME280;10082;51.038;6.992;2023-03-01T03:23:41;112171.53;;;-144.33;100.00
19843;BME280;10082;51.038;6.992;2023-03-01T03:26:09;112171.53;;;-144.33;100.00
19843;BME280;10082;51.038;6.992;2023-03-01T03:28:40;112171.53;;;-144.33;100.00
19843;BME280;10082;51.038;6.992;2023-03-01T03:31:07;112171.53;;;-144.33;100.00
19843;BME280;10082;51.038;6.992;2023-03-01T03:33:37;112171.53;;;-144.33;100.00
19843;BME280;10082;51.038;6.992;2023-03-01T03:36:05;112171.53;;;-144.33;100.00
19843;BME280;10082;51.038;6.992;2023-03-01T03:38:35;112171.53;;;-144.33;100.00
19843;BME280;10082;51.038;6.992;2023-03-01T03:41:07;112171.53;;;-144.33;100.00
19843;BME280;10082;51.038;6.992;2023-03-01T03:43:36;112171.53;;;-144.33;100.00
19843;BME280;10082;51.038;6.992;2023-03-01T03:46:05;112171.53;;;-144.33;100.00
19843;BME280;10082;51.038;6.992;2023-03-01T03:48:33;112171.53;;;-144.33;100.00
19843;BME280;10082;51.038;6.992;2023-03-01T03:51:03;112171.53;;;-144.33;100.00
19843;BME280;10082;51.038;6.992;2023-03-01T03:53:32;112171.53;;;-144.33;100.00
19843;BME280;10082;51.038;6.992;2023-03-01T03:55:59;112171.53;;;-144.33;100.00
19843;BME280;10082;51.038;6.992;2023-03-01T03:58:27;112171.53;;;-144.33;100.00
19843;BME280;10082;51.038;6.992;2023-03-01T04:00:56;112171.53;;;-144.33;100.00
19843;BME280;10082;51.038;6.992;2023-03-01T04:03:26;112171.53;;;-144.33;100.00
19843;BME280;10082;51.038;6.992;2023-03-01T04:06:00;112171.53;;;-144.33;100.00
19843;BME280;10082;51.038;6.992;2023-03-01T04:08:29;112171.53;;;-144.33;100.00
19843;BME280;10082;51.038;6.992;2023-03-01T04:11:00;112171.53;;;-144.33;100.00
19843;BME280;10082;51.038;6.992;2023-03-01T04:13:49;112171.53;;;-144.33;100.00
19843;BME280;10082;51.038;6.992;2023-03-01T04:16:18;112171.53;;;-144.33;100.00
19843;BME280;10082;51.038;6.992;2023-03-01T04:18:49;112171.53;;;-144.33;100.00
19843;BME280;10082;51.038;6.992;2023-03-01T04:21:21;112171.53;;;-144.33;100.00
19843;BME280;10082;51.038;6.992;2023-03-01T04:23:53;112171.53;;;-144.33;100.00
19843;BME280;10082;51.038;6.992;2023-03-01T04:26:21;112171.53;;;-144.33;100.00
19843;BME280;10082;51.038;6.992;2023-03-01T04:28:48;112171.53;;;-144.33;100.00
19843;BME280;10082;51.038;6.992;2023-03-01T04:31:18;112171.53;;;-144.33;100.00
19843;BME280;10082;51.038;6.992;2023-03-01T04:33:50;112171.53;;;-144.33;100.00
19843;BME280;10082;51.038;6.992;2023-03-01T04:36:20;112171.53;;;-144.33;100.00
19843;BME280;10082;51.038;6.992;2023-03-01T04:38:54;112171.53;;;-144.33;100.00
19843;BME280;10082;51.038;6.992;2023-03-01T04:41:29;112113.16;;;-144.33;100.00
19843;BME280;10082;51.038;6.992;2023-03-01T04:44:02;110891.50;;;-144.33;100.00
19843;BME280;10082;51.038;6.992;2023-03-01T04:46:29;109879.41;;;-144.33;100.00
19843;BME280;10082;51.038;6.992;2023-03-01T04:48:57;108226.00;;;-144.33;100.00
19843;BME280;10082;51.038;6.992;2023-03-01T04:51:25;106390.31;;;-144.33;100.00
19843;BME280;10082;51.038;6.992;2023-03-01T04:53:57;105300.97;;;-144.33;100.00
19843;BME280;10082;51.038;6.992;2023-03-01T04:56:28;103908.56;;;-144.33;100.00
19843;BME280;10082;51.038;6.992;2023-03-01T04:58:59;102625.09;;;-144.33;100.00
19843;BME280;10082;51.038;6.992;2023-03-01T05:01:34;101247.66;;;-144.33;100.00
19843;BME280;10082;51.038;6.992;2023-03-01T05:04:04;99336.88;;;-144.33;100.00
19843;BME280;10082;51.038;6.992;2023-03-01T05:06:32;98265.47;;;-144.33;100.00
19843;BME280;10082;51.038;6.992;2023-03-01T05:09:02;97015.88;;;-144.33;100.00
19843;BME280;10082;51.038;6.992;2023-03-01T05:11:30;94205.16;;;-144.33;100.00
19843;BME280;10082;51.038;6.992;2023-03-01T05:14:03;93666.09;;;-144.33;100.00
19843;BME280;10082;51.038;6.992;2023-03-01T05:16:35;92101.41;;;-144.33;100.00
19843;BME280;10082;51.038;6.992;2023-03-01T05:19:08;90949.81;;;-144.33;100.00
19843;BME280;10082;51.038;6.992;2023-03-01T05:21:41;89970.72;;;-144.33;100.00
19843;BME280;10082;51.038;6.992;2023-03-01T05:24:28;88625.59;;;-144.33;100.00
19843;BME280;10082;51.038;6.992;2023-03-01T05:26:57;86692.78;;;-144.33;100.00
19843;BME280;10082;51.038;6.992;2023-03-01T05:29:27;85448.75;;;-144.33;100.00
19843;BME280;10082;51.038;6.992;2023-03-01T05:31:57;84642.91;;;-144.33;100.00
19843;BME280;10082;51.038;6.992;2023-03-01T05:34:25;82586.13;;;-144.33;100.00
19843;BME280;10082;51.038;6.992;2023-03-01T05:37:00;81283.41;;;-144.33;100.00
19843;BME280;10082;51.038;6.992;2023-03-01T05:39:30;79669.63;;;-144.33;100.00
19843;BME280;10082;51.038;6.992;2023-03-01T05:41:58;79366.09;;;-144.33;100.00
19843;BME280;10082;51.038;6.992;2023-03-01T05:44:27;79521.84;;;-144.33;100.00
19843;BME280;10082;51.038;6.992;2023-03-01T05:46:56;79312.19;;;-144.33;100.00
19843;BME280;10082;51.038;6.992;2023-03-01T05:49:24;79198.38;;;-144.33;100.00
19843;BME280;10082;51.038;6.992;2023-03-01T05:51:54;78280.03;;;-144.33;100.00
19843;BME280;10082;51.038;6.992;2023-03-01T05:54:23;77214.22;;;-144.33;100.00
19843;BME280;10082;51.038;6.992;2023-03-01T05:56:53;76136.72;;;-144.33;100.00
19843;BME280;10082;51.038;6.992;2023-03-01T05:59:24;74983.69;;;-144.33;100.00
19843;BME280;10082;51.038;6.992;2023-03-01T06:01:52;73856.94;;;-144.33;100.00
19843;BME280;10082;51.038;6.992;2023-03-01T06:04:22;73496.03;;;-144.33;100.00
19843;BME280;10082;51.038;6.992;2023-03-01T06:06:50;73402.34;;;-144.33;100.00
19843;BME280;10082;51.038;6.992;2023-03-01T06:09:21;72307.91;;;-144.33;100.00
19843;BME280;10082;51.038;6.992;2023-03-01T06:11:54;72012.94;;;-144.33;100.00
19843;BME280;10082;51.038;6.992;2023-03-01T06:14:22;71446.94;;;-144.33;100.00
19843;BME280;10082;51.038;6.992;2023-03-01T06:16:49;71514.69;;;-144.33;100.00
19843;BME280;10082;51.038;6.992;2023-03-01T06:19:16;70857.13;;;-144.33;100.00
19843;BME280;10082;51.038;6.992;2023-03-01T06:21:43;71618.31;;;-144.33;100.00
19843;BME280;10082;51.038;6.992;2023-03-01T06:24:10;71512.72;;;-144.33;100.00
19843;BME280;10082;51.038;6.992;2023-03-01T06:26:38;70982.66;;;-144.33;100.00
19843;BME280;10082;51.038;6.992;2023-03-01T06:29:07;71478.81;;;-144.33;100.00
19843;BME280;10082;51.038;6.992;2023-03-01T06:31:35;71251.66;;;-144.33;100.00
19843;BME280;10082;51.038;6.992;2023-03-01T06:34:03;70835.22;;;-144.33;100.00
19843;BME280;10082;51.038;6.992;2023-03-01T06:36:30;70721.63;;;-144.33;100.00
19843;BME280;10082;51.038;6.992;2023-03-01T06:38:58;69938.69;;;-144.33;100.00
19843;BME280;10082;51.038;6.992;2023-03-01T06:41:26;69978.53;;;-144.33;100.00
19843;BME280;10082;51.038;6.992;2023-03-01T06:43:53;69643.88;;;-144.33;100.00
19843;BME280;10082;51.038;6.992;2023-03-01T06:46:22;69705.63;;;-144.33;100.00
19843;BME280;10082;51.038;6.992;2023-03-01T06:48:50;70697.72;;;-144.33;100.00
19843;BME280;10082;51.038;6.992;2023-03-01T06:51:21;70928.84;;;-144.33;100.00
19843;BME280;10082;51.038;6.992;2023-03-01T06:53:51;70404.84;;;-144.33;100.00
19843;BME280;10082;51.038;6.992;2023-03-01T06:56:23;70106.03;;;-144.33;100.00
19843;BME280;10082;51.038;6.992;2023-03-01T06:58:51;70669.84;;;-144.33;100.00
19843;BME280;10082;51.038;6.992;2023-03-01T07:01:33;71433.00;;;-144.33;100.00
19843;BME280;10082;51.038;6.992;2023-03-01T07:04:01;71795.69;;;-144.33;100.00
19843;BME280;10082;51.038;6.992;2023-03-01T07:06:29;72140.50;;;-144.33;100.00
19843;BME280;10082;51.038;6.992;2023-03-01T07:08:57;70865.09;;;-144.33;100.00
19843;BME280;10082;51.038;6.992;2023-03-01T07:11:24;73286.69;;;-144.33;100.00
19843;BME280;10082;51.038;6.992;2023-03-01T07:13:54;74925.84;;;-144.33;100.00
19843;BME280;10082;51.038;6.992;2023-03-01T07:16:21;76603.59;;;-144.33;100.00
19843;BME280;10082;51.038;6.992;2023-03-01T07:18:50;78381.84;;;-144.33;100.00
19843;BME280;10082;51.038;6.992;2023-03-01T07:21:17;79601.72;;;-144.33;100.00
19843;BME280;10082;51.038;6.992;2023-03-01T07:23:47;82712.00;;;-144.33;100.00
19843;BME280;10082;51.038;6.992;2023-03-01T07:26:14;85668.72;;;-144.33;100.00
19843;BME280;10082;51.038;6.992;2023-03-01T07:28:41;87040.84;;;-144.33;100.00
19843;BME280;10082;51.038;6.992;2023-03-01T07:31:09;89878.63;;;-144.33;100.00
19843;BME280;10082;51.038;6.992;2023-03-01T07:33:36;87124.88;;;-144.33;100.00
19843;BME280;10082;51.038;6.992;2023-03-01T07:36:06;90565.34;;;-144.33;100.00
19843;BME280;10082;51.038;6.992;2023-03-01T07:38:34;107486.00;;;-144.33;100.00
19843;BME280;10082;51.038;6.992;2023-03-01T07:41:03;112171.53;;;-144.33;100.00
19843;BME280;10082;51.038;6.992;2023-03-01T07:43:31;112171.53;;;-144.33;100.00
19843;BME280;10082;51.038;6.992;2023-03-01T07:46:00;112171.53;;;-144.33;100.00
19843;BME280;10082;51.038;6.992;2023-03-01T07:48:28;112171.53;;;-144.33;100.00
19843;BME280;10082;51.038;6.992;2023-03-01T07:50:58;112171.53;;;-144.33;100.00
19843;BME280;10082;51.038;6.992;2023-03-01T07:53:33;112171.53;;;-144.33;93.97
19843;BME280;10082;51.038;6.992;2023-03-01T07:56:07;112171.53;;;-144.33;88.40
19843;BME280;10082;51.038;6.992;2023-03-01T07:58:38;112171.53;;;-144.33;82.87
19843;BME280;10082;51.038;6.992;2023-03-01T08:01:11;112171.53;;;-144.33;75.47
19843;BME280;10082;51.038;6.992;2023-03-01T08:03:44;112171.53;;;-144.33;72.78
19843;BME280;10082;51.038;6.992;2023-03-01T08:06:15;112171.53;;;-144.33;69.33
19843;BME280;10082;51.038;6.992;2023-03-01T08:08:49;112171.53;;;-144.33;70.10
19843;BME280;10082;51.038;6.992;2023-03-01T08:11:17;112171.53;;;-144.33;68.31
19843;BME280;10082;51.038;6.992;2023-03-01T08:13:47;112171.53;;;-144.33;67.68
19843;BME280;10082;51.038;6.992;2023-03-01T08:16:17;112171.53;;;-144.33;66.63
19843;BME280;10082;51.038;6.992;2023-03-01T08:18:50;112171.53;;;-144.33;66.66
19843;BME280;10082;51.038;6.992;2023-03-01T08:21:22;112171.53;;;-144.33;65.42
19843;BME280;10082;51.038;6.992;2023-03-01T08:23:50;112171.53;;;-144.33;65.84
19843;BME280;10082;51.038;6.992;2023-03-01T08:26:22;112171.53;;;-144.33;64.65
19843;BME280;10082;51.038;6.992;2023-03-01T08:29:01;112171.53;;;-144.33;63.83
19843;BME280;10082;51.038;6.992;2023-03-01T08:31:37;112171.53;;;-144.33;62.89
19843;BME280;10082;51.038;6.992;2023-03-01T08:34:08;112171.53;;;-144.33;62.55
19843;BME280;10082;51.038;6.992;2023-03-01T08:36:39;112171.53;;;-144.33;63.36
19843;BME280;10082;51.038;6.992;2023-03-01T08:39:09;112171.53;;;-144.33;62.42
19843;BME280;10082;51.038;6.992;2023-03-01T08:41:40;112171.53;;;-144.33;60.20
19843;BME280;10082;51.038;6.992;2023-03-01T08:44:10;112171.53;;;-144.33;59.77
19843;BME280;10082;51.038;6.992;2023-03-01T08:46:41;112171.53;;;-144.33;57.27
19843;BME280;10082;51.038;6.992;2023-03-01T08:49:11;112171.53;;;-144.33;57.07
19843;BME280;10082;51.038;6.992;2023-03-01T08:51:40;112171.53;;;-144.33;56.02
19843;BME280;10082;51.038;6.992;2023-03-01T08:54:14;112171.53;;;-144.33;53.16
19843;BME280;10082;51.038;6.992;2023-03-01T08:56:44;112171.53;;;-144.33;53.57
19843;BME280;10082;51.038;6.992;2023-03-01T08:59:15;112171.53;;;-144.33;52.87
19843;BME280;10082;51.038;6.992;2023-03-01T09:01:51;112171.53;;;-144.33;52.81
19843;BME280;10082;51.038;6.992;2023-03-01T09:04:19;112171.53;;;-144.33;51.07
19843;BME280;10082;51.038;6.992;2023-03-01T09:06:48;112171.53;;;-144.33;49.45
19843;BME280;10082;51.038;6.992;2023-03-01T09:09:19;112171.53;;;-144.33;50.57
19843;BME280;10082;51.038;6.992;2023-03-01T09:11:47;112171.53;;;-144.33;50.88
19843;BME280;10082;51.038;6.992;2023-03-01T09:14:15;112171.53;;;-144.33;48.14
19843;BME280;10082;51.038;6.992;2023-03-01T09:16:43;112171.53;;;-144.33;47.62
19843;BME280;10082;51.038;6.992;2023-03-01T09:19:10;112171.53;;;-144.33;49.80
19843;BME280;10082;51.038;6.992;2023-03-01T09:21:38;112171.53;;;-144.33;51.03
19843;BME280;10082;51.038;6.992;2023-03-01T09:24:12;112171.53;;;-144.33;50.54
19843;BME280;10082;51.038;6.992;2023-03-01T09:26:42;112171.53;;;-144.33;51.27
19843;BME280;10082;51.038;6.992;2023-03-01T09:29:12;112171.53;;;-144.33;50.95
19843;BME280;10082;51.038;6.992;2023-03-01T09:31:40;112171.53;;;-144.33;49.40
19843;BME280;10082;51.038;6.992;2023-03-01T09:34:08;112171.53;;;-144.33;47.62
19843;BME280;10082;51.038;6.992;2023-03-01T09:36:36;112171.53;;;-144.33;46.38
19843;BME280;10082;51.038;6.992;2023-03-01T09:39:04;112171.53;;;-144.33;46.93
19843;BME280;10082;51.038;6.992;2023-03-01T09:41:57;112171.53;;;-144.33;46.53
19843;BME280;10082;51.038;6.992;2023-03-01T09:44:32;112171.53;;;-144.33;45.72
19843;BME280;10082;51.038;6.992;2023-03-01T09:47:15;112171.53;;;-144.33;45.06
19843;BME280;10082;51.038;6.992;2023-03-01T09:49:51;112171.53;;;-144.33;43.74
19843;BME280;10082;51.038;6.992;2023-03-01T09:52:28;112171.53;;;-144.33;42.15
19843;BME280;10082;51.038;6.992;2023-03-01T09:54:58;112171.53;;;-144.33;43.13
19843;BME280;10082;51.038;6.992;2023-03-01T09:57:39;112171.53;;;-144.33;42.19
19843;BME280;10082;51.038;6.992;2023-03-01T10:00:30;112171.53;;;-144.33;43.05
19843;BME280;10082;51.038;6.992;2023-03-01T10:03:11;112171.53;;;-144.33;43.44
19843;BME280;10082;51.038;6.992;2023-03-01T10:05:48;112171.53;;;-144.33;42.17
19843;BME280;10082;51.038;6.992;2023-03-01T10:08:29;112171.53;;;-144.33;43.39
19843;BME280;10082;51.038;6.992;2023-03-01T10:10:59;112171.53;;;-144.33;42.91
19843;BME280;10082;51.038;6.992;2023-03-01T10:13:36;112171.53;;;-144.33;41.83
19843;BME280;10082;51.038;6.992;2023-03-01T10:16:13;112171.53;;;-144.33;42.88
19843;BME280;10082;51.038;6.992;2023-03-01T10:18:46;112171.53;;;-144.33;42.67
19843;BME280;10082;51.038;6.992;2023-03-01T10:21:19;112171.53;;;-144.33;42.70
19843;BME280;10082;51.038;6.992;2023-03-01T10:23:50;112171.53;;;-144.33;41.79
19843;BME280;10082;51.038;6.992;2023-03-01T10:26:29;112171.53;;;-144.33;42.53
19843;BME280;10082;51.038;6.992;2023-03-01T10:29:04;112171.53;;;-144.33;42.25
19843;BME280;10082;51.038;6.992;2023-03-01T10:31:41;112171.53;;;-144.33;41.59
19843;BME280;10082;51.038;6.992;2023-03-01T10:34:14;112171.53;;;-144.33;39.92
19843;BME280;10082;51.038;6.992;2023-03-01T10:36:43;112171.53;;;-144.33;40.07
19843;BME280;10082;51.038;6.992;2023-03-01T10:39:15;112171.53;;;-144.33;39.49
19843;BME280;10082;51.038;6.992;2023-03-01T10:41:55;112171.53;;;-144.33;39.32
19843;BME280;10082;51.038;6.992;2023-03-01T10:44:43;112171.53;;;-144.33;40.39
19843;BME280;10082;51.038;6.992;2023-03-01T10:47:20;112171.53;;;-144.33;41.71
19843;BME280;10082;51.038;6.992;2023-03-01T10:49:53;112171.53;;;-144.33;42.14
19843;BME280;10082;51.038;6.992;2023-03-01T10:52:26;112171.53;;;-144.33;42.79
19843;BME280;10082;51.038;6.992;2023-03-01T10:54:55;112171.53;;;-144.33;42.91
19843;BME280;10082;51.038;6.992;2023-03-01T10:57:36;112171.53;;;-144.33;43.63
19843;BME280;10082;51.038;6.992;2023-03-01T11:00:31;112171.53;;;-144.33;44.45
19843;BME280;10082;51.038;6.992;2023-03-01T11:03:09;112171.53;;;-144.33;44.55
19843;BME280;10082;51.038;6.992;2023-03-01T11:05:37;112171.53;;;-144.33;44.86
19843;BME280;10082;51.038;6.992;2023-03-01T11:08:29;112171.53;;;-144.33;45.64
19843;BME280;10082;51.038;6.992;2023-03-01T11:11:13;112171.53;;;-144.33;45.65
19843;BME280;10082;51.038;6.992;2023-03-01T11:13:50;112171.53;;;-144.33;46.84
19843;BME280;10082;51.038;6.992;2023-03-01T11:16:26;112171.53;;;-144.33;46.60
19843;BME280;10082;51.038;6.992;2023-03-01T11:18:59;112171.53;;;-144.33;45.93
19843;BME280;10082;51.038;6.992;2023-03-01T11:21:28;112171.53;;;-144.33;46.38
19843;BME280;10082;51.038;6.992;2023-03-01T11:24:03;112171.53;;;-144.33;47.03
19843;BME280;10082;51.038;6.992;2023-03-01T11:26:41;112171.53;;;-144.33;48.21
19843;BME280;10082;51.038;6.992;2023-03-01T11:29:17;112171.53;;;-144.33;48.36
19843;BME280;10082;51.038;6.992;2023-03-01T11:31:50;112171.53;;;-144.33;47.98
19843;BME280;10082;51.038;6.992;2023-03-01T11:34:23;112171.53;;;-144.33;49.70
19843;BME280;10082;51.038;6.992;2023-03-01T11:36:58;112171.53;;;-144.33;48.65
19843;BME280;10082;51.038;6.992;2023-03-01T11:39:34;112171.53;;;-144.33;48.18
19843;BME280;10082;51.038;6.992;2023-03-01T11:42:11;112171.53;;;-144.33;48.44
19843;BME280;10082;51.038;6.992;2023-03-01T11:44:41;112171.53;;;-144.33;48.50
19843;BME280;10082;51.038;6.992;2023-03-01T11:47:28;112171.53;;;-144.33;48.81
19843;BME280;10082;51.038;6.992;2023-03-01T11:50:18;112171.53;;;-144.33;48.95
19843;BME280;10082;51.038;6.992;2023-03-01T11:53:15;112171.53;;;-144.33;48.31
19843;BME280;10082;51.038;6.992;2023-03-01T11:56:00;112171.53;;;-144.33;48.24
19843;BME280;10082;51.038;6.992;2023-03-01T11:58:49;112171.53;;;-144.33;49.46
19843;BME280;10082;51.038;6.992;2023-03-01T12:04:34;112171.53;;;-144.33;49.14
19843;BME280;10082;51.038;6.992;2023-03-01T12:07:07;112171.53;;;-144.33;47.69
19843;BME280;10082;51.038;6.992;2023-03-01T12:09:53;112171.53;;;-144.33;47.48
19843;BME280;10082;51.038;6.992;2023-03-01T12:12:32;112171.53;;;-144.33;47.43
19843;BME280;10082;51.038;6.992;2023-03-01T12:18:22;112171.53;;;-144.33;47.87
19843;BME280;10082;51.038;6.992;2023-03-01T12:21:06;112171.53;;;-144.33;48.02
19843;BME280;10082;51.038;6.992;2023-03-01T12:26:47;112171.53;;;-144.33;46.84
19843;BME280;10082;51.038;6.992;2023-03-01T12:29:25;112171.53;;;-144.33;47.97
19843;BME280;10082;51.038;6.992;2023-03-01T12:32:23;112171.53;;;-144.33;47.18
19843;BME280;10082;51.038;6.992;2023-03-01T12:35:05;112171.53;;;-144.33;47.89
19843;BME280;10082;51.038;6.992;2023-03-01T12:37:53;112171.53;;;-144.33;47.71
19843;BME280;10082;51.038;6.992;2023-03-01T12:40:37;112171.53;;;-144.33;46.77
19843;BME280;10082;51.038;6.992;2023-03-01T12:43:22;112171.53;;;-144.33;46.77
19843;BME280;10082;51.038;6.992;2023-03-01T12:46:10;112171.53;;;-144.33;45.92
19843;BME280;10082;51.038;6.992;2023-03-01T12:48:53;112171.53;;;-144.33;45.16
19843;BME280;10082;51.038;6.992;2023-03-01T12:51:30;112171.53;;;-144.33;44.87
19843;BME280;10082;51.038;6.992;2023-03-01T12:54:15;112171.53;;;-144.33;45.43
19843;BME280;10082;51.038;6.992;2023-03-01T12:56:47;112171.53;;;-144.33;44.94
19843;BME280;10082;51.038;6.992;2023-03-01T12:59:21;112171.53;;;-144.33;44.49
19843;BME280;10082;51.038;6.992;2023-03-01T13:02:02;112171.53;;;-144.33;44.56
19843;BME280;10082;51.038;6.992;2023-03-01T13:04:49;112171.53;;;-144.33;44.08